sensor_id;sensor_type;location;lat;lon;timestamp;temperature;humidity
43920;DHT22;29578;51.946;5.874;2024-03-08T00:01:49;4.00;87.40
43920;DHT22;29578;51.946;5.874;2024-03-08T00:04:15;3.90;87.40
43920;DHT22;29578;51.946;5.874;2024-03-08T00:06:41;3.90;87.30
43920;DHT22;29578;51.946;5.874;2024-03-08T00:09:07;3.80;87.60
43920;DHT22;29578;51.946;5.874;2024-03-08T00:11:34;3.80;87.30
43920;DHT22;29578;51.946;5.874;2024-03-08T00:14:00;3.80;87.40
43920;DHT22;29578;51.946;5.874;2024-03-08T00:16:26;3.80;87.40
43920;DHT22;29578;51.946;5.874;2024-03-08T00:18:53;3.80;87.40
43920;DHT22;29578;51.946;5.874;2024-03-08T00:21:18;3.70;87.40
43920;DHT22;29578;51.946;5.874;2024-03-08T00:23:44;3.70;87.50
43920;DHT22;29578;51.946;5.874;2024-03-08T00:26:10;3.60;87.40
43920;DHT22;29578;51.946;5.874;2024-03-08T00:28:35;3.70;87.50
43920;DHT22;29578;51.946;5.874;2024-03-08T00:31:01;3.70;87.40
43920;DHT22;29578;51.946;5.874;2024-03-08T00:33:27;3.60;87.30
43920;DHT22;29578;51.946;5.874;2024-03-08T00:35:54;3.70;87.40
43920;DHT22;29578;51.946;5.874;2024-03-08T00:38:19;3.70;87.30
43920;DHT22;29578;51.946;5.874;2024-03-08T00:40:45;3.70;87.20
43920;DHT22;29578;51.946;5.874;2024-03-08T00:43:11;3.70;87.20
43920;DHT22;29578;51.946;5.874;2024-03-08T00:45:36;3.60;87.20
43920;DHT22;29578;51.946;5.874;2024-03-08T00:48:03;3.60;87.20
43920;DHT22;29578;51.946;5.874;2024-03-08T00:50:29;3.60;87.20
43920;DHT22;29578;51.946;5.874;2024-03-08T00:52:55;3.60;87.10
43920;DHT22;29578;51.946;5.874;2024-03-08T00:55:21;3.50;87.10
43920;DHT22;29578;51.946;5.874;2024-03-08T00:57:47;3.50;87.10
43920;DHT22;29578;51.946;5.874;2024-03-08T01:00:13;3.60;87.20
43920;DHT22;29578;51.946;5.874;2024-03-08T01:02:39;3.50;87.10
43920;DHT22;29578;51.946;5.874;2024-03-08T01:05:05;3.50;87.20
43920;DHT22;29578;51.946;5.874;2024-03-08T01:07:33;3.40;87.10
43920;DHT22;29578;51.946;5.874;2024-03-08T01:10:00;3.40;87.20
43920;DHT22;29578;51.946;5.874;2024-03-08T01:12:26;3.40;87.20
43920;DHT22;29578;51.946;5.874;2024-03-08T01:14:52;3.30;87.10
43920;DHT22;29578;51.946;5.874;2024-03-08T01:17:17;3.30;87.10
43920;DHT22;29578;51.946;5.874;2024-03-08T01:19:43;3.30;87.10
43920;DHT22;29578;51.946;5.874;2024-03-08T01:22:10;3.30;87.10
43920;DHT22;29578;51.946;5.874;2024-03-08T01:24:36;3.30;87.00
43920;DHT22;29578;51.946;5.874;2024-03-08T01:27:03;3.30;87.00
43920;DHT22;29578;51.946;5.874;2024-03-08T01:29:28;3.30;87.00
43920;DHT22;29578;51.946;5.874;2024-03-08T01:31:56;3.30;87.00
43920;DHT22;29578;51.946;5.874;2024-03-08T01:34:22;3.40;86.90
43920;DHT22;29578;51.946;5.874;2024-03-08T01:36:48;3.30;86.90
43920;DHT22;29578;51.946;5.874;2024-03-08T01:39:14;3.30;86.90
43920;DHT22;29578;51.946;5.874;2024-03-08T01:41:40;3.20;86.90
43920;DHT22;29578;51.946;5.874;2024-03-08T01:44:06;3.30;86.90
43920;DHT22;29578;51.946;5.874;2024-03-08T01:46:33;3.20;86.80
43920;DHT22;29578;51.946;5.874;2024-03-08T01:48:59;3.20;86.80
43920;DHT22;29578;51.946;5.874;2024-03-08T01:51:26;3.20;86.80
43920;DHT22;29578;51.946;5.874;2024-03-08T01:53:54;3.20;86.90
43920;DHT22;29578;51.946;5.874;2024-03-08T01:56:21;3.10;86.80
43920;DHT22;29578;51.946;5.874;2024-03-08T01:58:47;3.10;86.80
43920;DHT22;29578;51.946;5.874;2024-03-08T02:01:13;3.10;86.80
43920;DHT22;29578;51.946;5.874;2024-03-08T02:03:40;3.10;86.80
43920;DHT22;29578;51.946;5.874;2024-03-08T02:06:12;3.00;86.80
43920;DHT22;29578;51.946;5.874;2024-03-08T02:08:41;3.10;86.90
43920;DHT22;29578;51.946;5.874;2024-03-08T02:11:07;3.00;86.90
43920;DHT22;29578;51.946;5.874;2024-03-08T02:13:33;3.00;86.90
43920;DHT22;29578;51.946;5.874;2024-03-08T02:16:00;3.00;87.00
43920;DHT22;29578;51.946;5.874;2024-03-08T02:18:27;3.00;87.00
43920;DHT22;29578;51.946;5.874;2024-03-08T02:20:55;3.00;87.00
43920;DHT22;29578;51.946;5.874;2024-03-08T02:23:21;2.90;87.00
43920;DHT22;29578;51.946;5.874;2024-03-08T02:25:48;2.80;86.90
43920;DHT22;29578;51.946;5.874;2024-03-08T02:28:15;2.80;87.00
43920;DHT22;29578;51.946;5.874;2024-03-08T02:30:41;2.80;86.90
43920;DHT22;29578;51.946;5.874;2024-03-08T02:33:07;2.80;86.90
43920;DHT22;29578;51.946;5.874;2024-03-08T02:35:35;2.80;86.90
43920;DHT22;29578;51.946;5.874;2024-03-08T02:38:02;2.80;86.90
43920;DHT22;29578;51.946;5.874;2024-03-08T02:40:29;2.80;87.00
43920;DHT22;29578;51.946;5.874;2024-03-08T02:42:55;2.80;86.90
43920;DHT22;29578;51.946;5.874;2024-03-08T02:45:20;2.80;86.90
43920;DHT22;29578;51.946;5.874;2024-03-08T02:47:46;2.70;86.90
43920;DHT22;29578;51.946;5.874;2024-03-08T02:50:15;2.70;87.00
43920;DHT22;29578;51.946;5.874;2024-03-08T02:52:42;2.70;87.00
43920;DHT22;29578;51.946;5.874;2024-03-08T02:55:08;2.70;87.00
43920;DHT22;29578;51.946;5.874;2024-03-08T02:57:36;2.70;87.00
43920;DHT22;29578;51.946;5.874;2024-03-08T03:00:02;2.60;86.90
43920;DHT22;29578;51.946;5.874;2024-03-08T03:02:29;2.60;86.90
43920;DHT22;29578;51.946;5.874;2024-03-08T03:04:55;2.60;86.90
43920;DHT22;29578;51.946;5.874;2024-03-08T03:07:21;2.60;86.90
43920;DHT22;29578;51.946;5.874;2024-03-08T03:09:47;2.60;87.00
43920;DHT22;29578;51.946;5.874;2024-03-08T03:12:13;2.60;87.00
43920;DHT22;29578;51.946;5.874;2024-03-08T03:14:39;2.50;87.60
43920;DHT22;29578;51.946;5.874;2024-03-08T03:17:05;2.50;86.90
43920;DHT22;29578;51.946;5.874;2024-03-08T03:19:31;2.50;86.90
43920;DHT22;29578;51.946;5.874;2024-03-08T03:21:57;2.50;86.90
43920;DHT22;29578;51.946;5.874;2024-03-08T03:24:23;2.50;86.80
43920;DHT22;29578;51.946;5.874;2024-03-08T03:26:49;2.50;86.90
43920;DHT22;29578;51.946;5.874;2024-03-08T03:29:15;2.40;86.80
43920;DHT22;29578;51.946;5.874;2024-03-08T03:31:42;2.40;86.90
43920;DHT22;29578;51.946;5.874;2024-03-08T03:34:12;2.40;86.90
43920;DHT22;29578;51.946;5.874;2024-03-08T03:36:38;2.40;86.90
43920;DHT22;29578;51.946;5.874;2024-03-08T03:39:08;2.40;86.90
43920;DHT22;29578;51.946;5.874;2024-03-08T03:41:42;2.30;86.90
43920;DHT22;29578;51.946;5.874;2024-03-08T03:44:10;2.30;86.90
43920;DHT22;29578;51.946;5.874;2024-03-08T03:46:35;2.30;86.90
43920;DHT22;29578;51.946;5.874;2024-03-08T03:49:01;2.30;87.00
43920;DHT22;29578;51.946;5.874;2024-03-08T03:51:28;2.20;86.90
43920;DHT22;29578;51.946;5.874;2024-03-08T03:53:54;2.20;86.90
43920;DHT22;29578;51.946;5.874;2024-03-08T03:56:25;2.20;86.90
43920;DHT22;29578;51.946;5.874;2024-03-08T03:58:51;2.20;86.90
43920;DHT22;29578;51.946;5.874;2024-03-08T04:01:17;2.20;86.90
43920;DHT22;29578;51.946;5.874;2024-03-08T04:03:43;2.20;87.00
43920;DHT22;29578;51.946;5.874;2024-03-08T04:06:08;2.20;86.90
43920;DHT22;29578;51.946;5.874;2024-03-08T04:08:34;2.10;86.90
43920;DHT22;29578;51.946;5.874;2024-03-08T04:11:00;2.20;87.00
43920;DHT22;29578;51.946;5.874;2024-03-08T04:13:26;2.10;86.90
43920;DHT22;29578;51.946;5.874;2024-03-08T04:15:53;2.10;86.90
43920;DHT22;29578;51.946;5.874;2024-03-08T04:18:18;2.10;86.90
43920;DHT22;29578;51.946;5.874;2024-03-08T04:20:44;2.10;87.00
43920;DHT22;29578;51.946;5.874;2024-03-08T04:23:10;2.10;87.00
43920;DHT22;29578;51.946;5.874;2024-03-08T04:25:36;2.00;86.90
43920;DHT22;29578;51.946;5.874;2024-03-08T04:28:02;2.00;86.90
43920;DHT22;29578;51.946;5.874;2024-03-08T04:30:27;2.10;86.90
43920;DHT22;29578;51.946;5.874;2024-03-08T04:32:54;2.00;86.90
43920;DHT22;29578;51.946;5.874;2024-03-08T04:35:20;1.90;86.80
43920;DHT22;29578;51.946;5.874;2024-03-08T04:37:46;2.00;86.90
43920;DHT22;29578;51.946;5.874;2024-03-08T04:40:12;2.00;86.90
43920;DHT22;29578;51.946;5.874;2024-03-08T04:42:39;2.00;86.90
43920;DHT22;29578;51.946;5.874;2024-03-08T04:45:06;2.00;86.90
43920;DHT22;29578;51.946;5.874;2024-03-08T04:47:33;2.00;86.90
43920;DHT22;29578;51.946;5.874;2024-03-08T04:49:59;1.90;86.80
43920;DHT22;29578;51.946;5.874;2024-03-08T04:52:25;2.00;86.90
43920;DHT22;29578;51.946;5.874;2024-03-08T04:54:51;1.90;86.90
43920;DHT22;29578;51.946;5.874;2024-03-08T04:57:17;1.90;86.80
43920;DHT22;29578;51.946;5.874;2024-03-08T04:59:43;1.90;86.90
43920;DHT22;29578;51.946;5.874;2024-03-08T05:02:09;1.90;86.90
43920;DHT22;29578;51.946;5.874;2024-03-08T05:04:35;1.90;86.80
43920;DHT22;29578;51.946;5.874;2024-03-08T05:07:01;1.90;86.80
43920;DHT22;29578;51.946;5.874;2024-03-08T05:09:27;1.90;86.90
43920;DHT22;29578;51.946;5.874;2024-03-08T05:11:57;1.90;86.90
43920;DHT22;29578;51.946;5.874;2024-03-08T05:14:25;1.90;86.80
43920;DHT22;29578;51.946;5.874;2024-03-08T05:16:50;1.90;86.90
43920;DHT22;29578;51.946;5.874;2024-03-08T05:19:17;1.80;86.80
43920;DHT22;29578;51.946;5.874;2024-03-08T05:21:44;1.80;86.90
43920;DHT22;29578;51.946;5.874;2024-03-08T05:24:10;1.80;86.80
43920;DHT22;29578;51.946;5.874;2024-03-08T05:26:36;1.80;86.80
43920;DHT22;29578;51.946;5.874;2024-03-08T05:29:03;1.80;86.80
43920;DHT22;29578;51.946;5.874;2024-03-08T05:31:29;1.80;86.90
43920;DHT22;29578;51.946;5.874;2024-03-08T05:33:56;1.80;86.80
43920;DHT22;29578;51.946;5.874;2024-03-08T05:36:22;1.80;86.80
43920;DHT22;29578;51.946;5.874;2024-03-08T05:38:48;1.80;86.80
43920;DHT22;29578;51.946;5.874;2024-03-08T05:41:16;1.80;86.80
43920;DHT22;29578;51.946;5.874;2024-03-08T05:43:43;1.80;86.80
43920;DHT22;29578;51.946;5.874;2024-03-08T05:46:09;1.80;86.80
43920;DHT22;29578;51.946;5.874;2024-03-08T05:48:37;1.70;86.70
43920;DHT22;29578;51.946;5.874;2024-03-08T05:51:03;1.80;86.70
43920;DHT22;29578;51.946;5.874;2024-03-08T05:53:29;1.80;86.70
43920;DHT22;29578;51.946;5.874;2024-03-08T05:55:58;1.80;86.80
43920;DHT22;29578;51.946;5.874;2024-03-08T05:58:24;1.80;86.70
43920;DHT22;29578;51.946;5.874;2024-03-08T06:00:50;1.80;86.70
43920;DHT22;29578;51.946;5.874;2024-03-08T06:03:15;1.80;86.70
43920;DHT22;29578;51.946;5.874;2024-03-08T06:05:41;1.80;86.70
43920;DHT22;29578;51.946;5.874;2024-03-08T06:08:07;1.80;86.70
43920;DHT22;29578;51.946;5.874;2024-03-08T06:10:33;1.80;86.70
43920;DHT22;29578;51.946;5.874;2024-03-08T06:12:59;1.80;86.70
43920;DHT22;29578;51.946;5.874;2024-03-08T06:15:26;1.80;86.60
43920;DHT22;29578;51.946;5.874;2024-03-08T06:17:52;1.80;87.30
43920;DHT22;29578;51.946;5.874;2024-03-08T06:20:18;1.70;86.60
43920;DHT22;29578;51.946;5.874;2024-03-08T06:22:44;1.70;86.60
43920;DHT22;29578;51.946;5.874;2024-03-08T06:25:12;1.80;86.60
43920;DHT22;29578;51.946;5.874;2024-03-08T06:27:41;1.80;86.60
43920;DHT22;29578;51.946;5.874;2024-03-08T06:30:08;1.80;86.60
43920;DHT22;29578;51.946;5.874;2024-03-08T06:32:36;1.80;86.60
43920;DHT22;29578;51.946;5.874;2024-03-08T06:35:03;1.80;86.60
43920;DHT22;29578;51.946;5.874;2024-03-08T06:37:32;1.80;86.60
43920;DHT22;29578;51.946;5.874;2024-03-08T06:39:58;1.80;86.50
43920;DHT22;29578;51.946;5.874;2024-03-08T06:42:24;1.80;86.50
43920;DHT22;29578;51.946;5.874;2024-03-08T06:44:50;1.80;86.50
43920;DHT22;29578;51.946;5.874;2024-03-08T06:47:16;1.90;86.50
43920;DHT22;29578;51.946;5.874;2024-03-08T06:49:42;1.80;86.50
43920;DHT22;29578;51.946;5.874;2024-03-08T06:52:09;1.90;86.50
43920;DHT22;29578;51.946;5.874;2024-03-08T06:54:36;2.00;86.50
43920;DHT22;29578;51.946;5.874;2024-03-08T06:57:03;1.90;86.40
43920;DHT22;29578;51.946;5.874;2024-03-08T06:59:31;1.90;86.40
43920;DHT22;29578;51.946;5.874;2024-03-08T07:01:57;2.00;86.40
43920;DHT22;29578;51.946;5.874;2024-03-08T07:04:25;2.00;86.30
43920;DHT22;29578;51.946;5.874;2024-03-08T07:06:55;2.00;86.20
43920;DHT22;29578;51.946;5.874;2024-03-08T07:09:21;2.10;86.20
43920;DHT22;29578;51.946;5.874;2024-03-08T07:11:46;2.10;86.10
43920;DHT22;29578;51.946;5.874;2024-03-08T07:14:12;2.10;86.00
43920;DHT22;29578;51.946;5.874;2024-03-08T07:16:40;2.20;86.00
43920;DHT22;29578;51.946;5.874;2024-03-08T07:19:07;2.30;86.00
43920;DHT22;29578;51.946;5.874;2024-03-08T07:21:32;2.20;85.80
43920;DHT22;29578;51.946;5.874;2024-03-08T07:23:58;2.30;85.80
43920;DHT22;29578;51.946;5.874;2024-03-08T07:26:44;2.30;85.70
43920;DHT22;29578;51.946;5.874;2024-03-08T07:29:09;2.40;85.60
43920;DHT22;29578;51.946;5.874;2024-03-08T07:31:35;2.40;85.50
43920;DHT22;29578;51.946;5.874;2024-03-08T07:34:16;2.40;85.50
43920;DHT22;29578;51.946;5.874;2024-03-08T07:36:42;2.50;85.50
43920;DHT22;29578;51.946;5.874;2024-03-08T07:39:08;2.50;85.30
43920;DHT22;29578;51.946;5.874;2024-03-08T07:41:37;2.50;85.30
43920;DHT22;29578;51.946;5.874;2024-03-08T07:44:06;2.60;85.30
43920;DHT22;29578;51.946;5.874;2024-03-08T07:46:32;2.60;85.20
43920;DHT22;29578;51.946;5.874;2024-03-08T07:48:59;2.70;85.10
43920;DHT22;29578;51.946;5.874;2024-03-08T07:51:25;2.80;85.10
43920;DHT22;29578;51.946;5.874;2024-03-08T07:53:51;2.80;85.00
43920;DHT22;29578;51.946;5.874;2024-03-08T07:56:16;2.90;85.00
43920;DHT22;29578;51.946;5.874;2024-03-08T07:58:44;2.90;84.90
43920;DHT22;29578;51.946;5.874;2024-03-08T08:01:18;3.00;84.70
43920;DHT22;29578;51.946;5.874;2024-03-08T08:03:45;3.10;84.70
43920;DHT22;29578;51.946;5.874;2024-03-08T08:06:11;3.20;84.70
43920;DHT22;29578;51.946;5.874;2024-03-08T08:08:42;3.30;84.60
43920;DHT22;29578;51.946;5.874;2024-03-08T08:11:08;3.30;85.00
43920;DHT22;29578;51.946;5.874;2024-03-08T08:13:34;3.40;84.30
43920;DHT22;29578;51.946;5.874;2024-03-08T08:16:02;3.50;84.20
43920;DHT22;29578;51.946;5.874;2024-03-08T08:18:28;3.70;84.10
43920;DHT22;29578;51.946;5.874;2024-03-08T08:20:55;3.70;83.90
43920;DHT22;29578;51.946;5.874;2024-03-08T08:23:21;3.80;83.80
43920;DHT22;29578;51.946;5.874;2024-03-08T08:25:47;3.90;84.40
43920;DHT22;29578;51.946;5.874;2024-03-08T08:28:18;4.00;83.80
43920;DHT22;29578;51.946;5.874;2024-03-08T08:30:44;4.10;83.70
43920;DHT22;29578;51.946;5.874;2024-03-08T08:33:10;4.10;83.60
43920;DHT22;29578;51.946;5.874;2024-03-08T08:35:37;4.20;83.60
43920;DHT22;29578;51.946;5.874;2024-03-08T08:38:04;4.30;83.50
43920;DHT22;29578;51.946;5.874;2024-03-08T08:40:30;4.40;83.50
43920;DHT22;29578;51.946;5.874;2024-03-08T08:42:58;4.50;83.40
43920;DHT22;29578;51.946;5.874;2024-03-08T08:45:23;4.60;83.30
43920;DHT22;29578;51.946;5.874;2024-03-08T08:47:49;4.70;83.20
43920;DHT22;29578;51.946;5.874;2024-03-08T08:50:15;4.80;83.10
43920;DHT22;29578;51.946;5.874;2024-03-08T08:52:42;4.90;82.90
43920;DHT22;29578;51.946;5.874;2024-03-08T08:55:09;4.90;82.90
43920;DHT22;29578;51.946;5.874;2024-03-08T08:57:40;5.00;82.80
43920;DHT22;29578;51.946;5.874;2024-03-08T09:00:06;5.20;82.80
43920;DHT22;29578;51.946;5.874;2024-03-08T09:02:34;5.30;82.80
43920;DHT22;29578;51.946;5.874;2024-03-08T09:05:00;5.30;82.70
43920;DHT22;29578;51.946;5.874;2024-03-08T09:07:27;5.40;82.50
43920;DHT22;29578;51.946;5.874;2024-03-08T09:09:53;5.50;82.30
43920;DHT22;29578;51.946;5.874;2024-03-08T09:12:24;5.60;82.20
43920;DHT22;29578;51.946;5.874;2024-03-08T09:14:49;5.70;82.20
43920;DHT22;29578;51.946;5.874;2024-03-08T09:17:15;5.80;82.10
43920;DHT22;29578;51.946;5.874;2024-03-08T09:19:46;5.90;82.20
43920;DHT22;29578;51.946;5.874;2024-03-08T09:22:13;6.00;82.00
43920;DHT22;29578;51.946;5.874;2024-03-08T09:24:39;6.10;81.90
43920;DHT22;29578;51.946;5.874;2024-03-08T09:27:05;6.20;81.90
43920;DHT22;29578;51.946;5.874;2024-03-08T09:29:31;6.20;81.80
43920;DHT22;29578;51.946;5.874;2024-03-08T09:31:57;6.30;81.80
43920;DHT22;29578;51.946;5.874;2024-03-08T09:34:22;6.40;81.80
43920;DHT22;29578;51.946;5.874;2024-03-08T09:36:49;6.50;81.70
43920;DHT22;29578;51.946;5.874;2024-03-08T09:39:16;6.60;81.60
43920;DHT22;29578;51.946;5.874;2024-03-08T09:41:43;6.70;81.60
43920;DHT22;29578;51.946;5.874;2024-03-08T09:44:09;6.80;81.50
43920;DHT22;29578;51.946;5.874;2024-03-08T09:46:35;6.90;81.30
43920;DHT22;29578;51.946;5.874;2024-03-08T09:49:01;6.90;81.20
43920;DHT22;29578;51.946;5.874;2024-03-08T09:51:28;6.90;81.20
43920;DHT22;29578;51.946;5.874;2024-03-08T09:53:54;7.00;81.20
43920;DHT22;29578;51.946;5.874;2024-03-08T09:56:22;7.10;81.10
43920;DHT22;29578;51.946;5.874;2024-03-08T09:58:49;7.10;81.00
43920;DHT22;29578;51.946;5.874;2024-03-08T10:01:33;7.10;80.90
43920;DHT22;29578;51.946;5.874;2024-03-08T10:03:59;7.20;81.20
43920;DHT22;29578;51.946;5.874;2024-03-08T10:06:25;7.20;81.20
43920;DHT22;29578;51.946;5.874;2024-03-08T10:08:51;7.30;81.10
43920;DHT22;29578;51.946;5.874;2024-03-08T10:11:18;7.30;81.00
43920;DHT22;29578;51.946;5.874;2024-03-08T10:13:45;7.40;80.90
43920;DHT22;29578;51.946;5.874;2024-03-08T10:16:12;7.40;80.90
43920;DHT22;29578;51.946;5.874;2024-03-08T10:18:38;7.50;80.90
43920;DHT22;29578;51.946;5.874;2024-03-08T10:21:05;7.50;80.90
43920;DHT22;29578;51.946;5.874;2024-03-08T10:23:33;7.60;80.90
43920;DHT22;29578;51.946;5.874;2024-03-08T10:26:12;7.80;80.80
43920;DHT22;29578;51.946;5.874;2024-03-08T10:28:41;7.60;80.60
43920;DHT22;29578;51.946;5.874;2024-03-08T10:31:07;7.70;80.60
43920;DHT22;29578;51.946;5.874;2024-03-08T10:33:32;7.70;80.60
43920;DHT22;29578;51.946;5.874;2024-03-08T10:35:59;7.70;80.50
43920;DHT22;29578;51.946;5.874;2024-03-08T10:38:26;7.80;80.40
43920;DHT22;29578;51.946;5.874;2024-03-08T10:40:55;7.90;80.30
43920;DHT22;29578;51.946;5.874;2024-03-08T10:43:24;8.00;80.20
43920;DHT22;29578;51.946;5.874;2024-03-08T10:45:57;8.00;80.10
43920;DHT22;29578;51.946;5.874;2024-03-08T10:48:31;8.10;80.10
43920;DHT22;29578;51.946;5.874;2024-03-08T10:50:59;8.10;79.80
43920;DHT22;29578;51.946;5.874;2024-03-08T10:53:27;8.20;79.80
43920;DHT22;29578;51.946;5.874;2024-03-08T10:55:56;8.20;79.70
43920;DHT22;29578;51.946;5.874;2024-03-08T10:58:25;8.40;79.60
43920;DHT22;29578;51.946;5.874;2024-03-08T11:00:53;8.40;79.50
43920;DHT22;29578;51.946;5.874;2024-03-08T11:03:47;8.50;79.30
43920;DHT22;29578;51.946;5.874;2024-03-08T11:06:18;8.60;79.20
43920;DHT22;29578;51.946;5.874;2024-03-08T11:08:49;8.70;79.00
43920;DHT22;29578;51.946;5.874;2024-03-08T11:11:24;8.80;78.90
43920;DHT22;29578;51.946;5.874;2024-03-08T11:13:53;8.90;78.60
43920;DHT22;29578;51.946;5.874;2024-03-08T11:16:40;8.90;78.60
43920;DHT22;29578;51.946;5.874;2024-03-08T11:19:26;9.10;78.40
43920;DHT22;29578;51.946;5.874;2024-03-08T11:21:59;9.10;78.20
43920;DHT22;29578;51.946;5.874;2024-03-08T11:24:25;9.20;78.20
43920;DHT22;29578;51.946;5.874;2024-03-08T11:26:56;9.30;78.10
43920;DHT22;29578;51.946;5.874;2024-03-08T11:29:35;9.30;77.90
43920;DHT22;29578;51.946;5.874;2024-03-08T11:32:15;9.40;77.80
43920;DHT22;29578;51.946;5.874;2024-03-08T11:34:47;9.50;77.70
43920;DHT22;29578;51.946;5.874;2024-03-08T11:37:14;9.50;77.60
43920;DHT22;29578;51.946;5.874;2024-03-08T11:39:46;9.50;77.60
43920;DHT22;29578;51.946;5.874;2024-03-08T11:42:12;9.60;77.40
43920;DHT22;29578;51.946;5.874;2024-03-08T11:44:38;9.70;77.20
43920;DHT22;29578;51.946;5.874;2024-03-08T11:47:09;9.80;77.10
43920;DHT22;29578;51.946;5.874;2024-03-08T11:49:36;9.90;77.00
43920;DHT22;29578;51.946;5.874;2024-03-08T11:52:02;10.00;76.90
43920;DHT22;29578;51.946;5.874;2024-03-08T11:54:28;10.00;76.70
43920;DHT22;29578;51.946;5.874;2024-03-08T11:56:56;10.10;76.50
43920;DHT22;29578;51.946;5.874;2024-03-08T11:59:28;10.20;76.50
43920;DHT22;29578;51.946;5.874;2024-03-08T12:02:06;10.20;76.20
43920;DHT22;29578;51.946;5.874;2024-03-08T12:04:33;10.20;76.10
43920;DHT22;29578;51.946;5.874;2024-03-08T12:07:00;10.30;76.10
43920;DHT22;29578;51.946;5.874;2024-03-08T12:09:28;10.40;75.90
43920;DHT22;29578;51.946;5.874;2024-03-08T12:11:54;10.40;75.90
43920;DHT22;29578;51.946;5.874;2024-03-08T12:14:20;10.40;75.90
43920;DHT22;29578;51.946;5.874;2024-03-08T12:16:50;10.50;75.90
43920;DHT22;29578;51.946;5.874;2024-03-08T12:19:16;10.40;75.70
43920;DHT22;29578;51.946;5.874;2024-03-08T12:21:42;10.40;75.60
43920;DHT22;29578;51.946;5.874;2024-03-08T12:24:16;10.40;75.50
43920;DHT22;29578;51.946;5.874;2024-03-08T12:26:45;10.50;75.70
43920;DHT22;29578;51.946;5.874;2024-03-08T12:29:16;10.50;75.70
43920;DHT22;29578;51.946;5.874;2024-03-08T12:31:43;10.60;75.60
43920;DHT22;29578;51.946;5.874;2024-03-08T12:34:09;10.60;75.50
43920;DHT22;29578;51.946;5.874;2024-03-08T12:36:35;10.70;75.20
43920;DHT22;29578;51.946;5.874;2024-03-08T12:39:02;10.70;75.20
43920;DHT22;29578;51.946;5.874;2024-03-08T12:41:29;10.70;75.20
43920;DHT22;29578;51.946;5.874;2024-03-08T12:43:55;10.80;75.10
43920;DHT22;29578;51.946;5.874;2024-03-08T12:46:21;10.80;75.10
43920;DHT22;29578;51.946;5.874;2024-03-08T12:48:48;10.90;74.90
43920;DHT22;29578;51.946;5.874;2024-03-08T12:51:14;10.90;74.80
43920;DHT22;29578;51.946;5.874;2024-03-08T12:53:42;10.90;74.80
43920;DHT22;29578;51.946;5.874;2024-03-08T12:56:12;10.90;74.70
43920;DHT22;29578;51.946;5.874;2024-03-08T12:58:38;11.10;74.70
43920;DHT22;29578;51.946;5.874;2024-03-08T13:01:05;11.10;74.40
43920;DHT22;29578;51.946;5.874;2024-03-08T13:03:34;11.10;74.10
43920;DHT22;29578;51.946;5.874;2024-03-08T13:06:02;11.20;74.30
43920;DHT22;29578;51.946;5.874;2024-03-08T13:08:29;11.20;74.00
43920;DHT22;29578;51.946;5.874;2024-03-08T13:10:56;11.10;74.00
43920;DHT22;29578;51.946;5.874;2024-03-08T13:13:22;11.10;74.10
43920;DHT22;29578;51.946;5.874;2024-03-08T13:15:48;11.10;74.10
43920;DHT22;29578;51.946;5.874;2024-03-08T13:18:14;11.10;74.40
43920;DHT22;29578;51.946;5.874;2024-03-08T13:20:41;11.30;74.30
43920;DHT22;29578;51.946;5.874;2024-03-08T13:23:09;11.30;73.80
43920;DHT22;29578;51.946;5.874;2024-03-08T13:25:35;11.40;73.70
43920;DHT22;29578;51.946;5.874;2024-03-08T13:28:04;11.40;73.60
43920;DHT22;29578;51.946;5.874;2024-03-08T13:30:30;11.50;73.50
43920;DHT22;29578;51.946;5.874;2024-03-08T13:32:56;11.60;73.50
43920;DHT22;29578;51.946;5.874;2024-03-08T13:35:21;11.60;73.40
43920;DHT22;29578;51.946;5.874;2024-03-08T13:37:52;11.60;73.40
43920;DHT22;29578;51.946;5.874;2024-03-08T13:40:18;11.70;73.40
43920;DHT22;29578;51.946;5.874;2024-03-08T13:42:46;11.70;73.30
43920;DHT22;29578;51.946;5.874;2024-03-08T13:45:12;11.70;73.10
43920;DHT22;29578;51.946;5.874;2024-03-08T13:47:39;11.70;73.10
43920;DHT22;29578;51.946;5.874;2024-03-08T13:50:06;11.70;73.10
43920;DHT22;29578;51.946;5.874;2024-03-08T13:52:33;11.60;73.00
43920;DHT22;29578;51.946;5.874;2024-03-08T13:55:01;11.50;73.10
43920;DHT22;29578;51.946;5.874;2024-03-08T13:57:26;11.50;73.30
43920;DHT22;29578;51.946;5.874;2024-03-08T13:59:53;11.50;73.50
43920;DHT22;29578;51.946;5.874;2024-03-08T14:02:19;11.50;73.50
43920;DHT22;29578;51.946;5.874;2024-03-08T14:04:45;11.50;73.50
43920;DHT22;29578;51.946;5.874;2024-03-08T14:07:10;11.40;73.40
43920;DHT22;29578;51.946;5.874;2024-03-08T14:09:37;11.50;73.50
43920;DHT22;29578;51.946;5.874;2024-03-08T14:12:04;11.50;73.40
43920;DHT22;29578;51.946;5.874;2024-03-08T14:14:33;11.50;73.50
43920;DHT22;29578;51.946;5.874;2024-03-08T14:17:01;11.50;73.60
43920;DHT22;29578;51.946;5.874;2024-03-08T14:19:28;11.40;73.60
43920;DHT22;29578;51.946;5.874;2024-03-08T14:21:53;11.50;73.70
43920;DHT22;29578;51.946;5.874;2024-03-08T14:24:20;11.40;73.50
43920;DHT22;29578;51.946;5.874;2024-03-08T14:26:45;11.50;73.60
43920;DHT22;29578;51.946;5.874;2024-03-08T14:29:14;11.40;73.60
43920;DHT22;29578;51.946;5.874;2024-03-08T14:31:40;11.40;73.70
43920;DHT22;29578;51.946;5.874;2024-03-08T14:34:08;11.40;73.70
43920;DHT22;29578;51.946;5.874;2024-03-08T14:36:34;11.40;73.60
43920;DHT22;29578;51.946;5.874;2024-03-08T14:39:00;11.50;73.40
43920;DHT22;29578;51.946;5.874;2024-03-08T14:41:26;11.40;73.20
43920;DHT22;29578;51.946;5.874;2024-03-08T14:43:52;11.30;73.40
43920;DHT22;29578;51.946;5.874;2024-03-08T14:46:19;11.30;73.50
43920;DHT22;29578;51.946;5.874;2024-03-08T14:48:47;11.30;73.60
43920;DHT22;29578;51.946;5.874;2024-03-08T14:51:13;11.20;73.60
43920;DHT22;29578;51.946;5.874;2024-03-08T14:53:41;11.30;73.60
43920;DHT22;29578;51.946;5.874;2024-03-08T14:56:09;11.30;73.20
43920;DHT22;29578;51.946;5.874;2024-03-08T14:58:37;11.30;73.10
43920;DHT22;29578;51.946;5.874;2024-03-08T15:01:04;11.30;73.20
43920;DHT22;29578;51.946;5.874;2024-03-08T15:03:34;11.40;73.00
43920;DHT22;29578;51.946;5.874;2024-03-08T15:06:01;11.30;73.70
43920;DHT22;29578;51.946;5.874;2024-03-08T15:08:27;11.20;73.30
43920;DHT22;29578;51.946;5.874;2024-03-08T15:10:53;11.20;73.30
43920;DHT22;29578;51.946;5.874;2024-03-08T15:13:20;11.20;73.20
43920;DHT22;29578;51.946;5.874;2024-03-08T15:15:49;11.10;73.20
43920;DHT22;29578;51.946;5.874;2024-03-08T15:18:22;11.00;73.40
43920;DHT22;29578;51.946;5.874;2024-03-08T15:20:52;10.90;73.50
43920;DHT22;29578;51.946;5.874;2024-03-08T15:23:17;10.90;73.60
43920;DHT22;29578;51.946;5.874;2024-03-08T15:25:43;11.20;73.40
43920;DHT22;29578;51.946;5.874;2024-03-08T15:28:15;11.30;73.00
43920;DHT22;29578;51.946;5.874;2024-03-08T15:30:44;11.30;72.80
43920;DHT22;29578;51.946;5.874;2024-03-08T15:33:13;11.60;72.30
43920;DHT22;29578;51.946;5.874;2024-03-08T15:35:41;11.70;71.30
43920;DHT22;29578;51.946;5.874;2024-03-08T15:38:07;11.70;71.10
43920;DHT22;29578;51.946;5.874;2024-03-08T15:40:33;11.50;71.40
43920;DHT22;29578;51.946;5.874;2024-03-08T15:43:00;11.30;71.80